Reek, Netherlands
Current Conditions -  °F | °C
As of 9:08 AM on Monday 26 Jan 2015 (Local Time) from EHVK Reporting Station
Heavy Rain Heavy Rain  
Wind Chill:   Ceiling: 200
Heat Index:   Visibility: 1.1mi
Dew Point:   Wind: 10mph
Humidity: 100%   Direction: 210°SSW
Pressure: 30.12"   Gusts: NA
Location:  51.75°N, 5.68°E
Report Text: EHVK 260808Z AUTO 21009KT 1900 +DZRA OVC002 04/04 Q1020 AMB
Loading
Personal Weather Stations






























Interactive Weather Map New forecast layout! Learn more

10-Day Weather Forecast

Advertisements
Track Severe Weather on mobile